This is the latest recevied weather packets stored in our database for station/object K6POO-1. If no packets are shown the sender has not sent any weather packets the latest 10 day(s).
| Time | Temp. | Humidity | Pressure | Rain* | Wind** | Luminosity | Snow |
|---|---|---|---|---|---|---|---|
| 1788141548 | 16.67° C | 72% | 1011.8 hPa | 0 mm | - | 33 W/m² | - |
| 1788141244 | 16.67° C | 71% | 1012 hPa | 0 mm | - | 35 W/m² | - |
| 1788140938 | 17.22° C | 70% | 1012 hPa | 0 mm | - | 38 W/m² | - |
| 1788140633 | 17.78° C | 69% | 1011.9 hPa | 0 mm | - | 40 W/m² | - |
| 1788140329 | 18.33° C | 67% | 1012.1 hPa | 0 mm | - | 42 W/m² | - |
| 1788140024 | 18.33° C | 68% | 1012.1 hPa | 0 mm | - | 50 W/m² | - |
| 1788139719 | 18.33° C | 69% | 1012 hPa | 0 mm | - | 53 W/m² | - |
| 1788139414 | 17.78° C | 72% | 1011.9 hPa | 0 mm | - | 57 W/m² | - |
| 1788139113 | 16.67° C | 73% | 1011.9 hPa | 0 mm | - | 70 W/m² | - |
| 1788138808 | 16.11° C | 76% | 1012.1 hPa | 0 mm | - | 78 W/m² | - |
| 1788138504 | 16.11° C | 78% | 1012.2 hPa | 0 mm | - | 93 W/m² | - |
| 1788138204 | 16.11° C | 76% | 1012 hPa | 0 mm | - | 107 W/m² | - |
| 1788137900 | 16.67° C | 76% | 1012.1 hPa | 0 mm | - | 118 W/m² | - |
| 1788137596 | 16.67° C | 76% | 1012.1 hPa | 0 mm | - | 133 W/m² | - |
| 1788137291 | 16.67° C | 75% | 1012.1 hPa | 0 mm | - | 153 W/m² | - |
| 1788136987 | 16.67° C | 75% | 1012.1 hPa | 0 mm | - | 166 W/m² | - |
| 1788136682 | 17.22° C | 74% | 1012.2 hPa | 0 mm | - | 177 W/m² | - |
| 1788136378 | 17.22° C | 73% | 1012.1 hPa | 0 mm | - | 203 W/m² | - |
| 1788136077 | 17.78° C | 71% | 1012.2 hPa | 0 mm | - | 220 W/m² | - |
| 1788135771 | 17.78° C | 70% | 1012.3 hPa | 0 mm | - | 239 W/m² | - |
| 1788135467 | 18.33° C | 67% | 1012.2 hPa | 0 mm | - | 258 W/m² | - |
| 1788135162 | 19.44° C | 64% | 1012.3 hPa | 0 mm | - | 278 W/m² | - |
| 1788134859 | 20° C | 61% | 1012 hPa | 0 mm | - | 300 W/m² | - |
| 1788134558 | 20° C | 62% | 1012.3 hPa | 0 mm | - | 317 W/m² | - |
| 1788134257 | 19.44° C | 64% | 1012.1 hPa | 0 mm | - | 325 W/m² | - |
* Rain latest hour (hover to see other rain measurements)
** Current wind speed in m/s (hover to see current wind gust speed)